sensor_id;sensor_type;location;lat;lon;timestamp;P1;durP1;ratioP1;P2;durP2;ratioP2
65737;SDS011;52478;51.844;6.582;2022-10-31T17:10:43;11.57;;;6.30;;
65737;SDS011;52478;51.844;6.582;2022-10-31T17:13:14;12.25;;;6.20;;
65737;SDS011;52478;51.844;6.582;2022-10-31T17:15:45;14.35;;;7.00;;
65737;SDS011;52478;51.844;6.582;2022-10-31T17:18:13;12.80;;;6.63;;
65737;SDS011;52478;51.844;6.582;2022-10-31T17:20:41;14.25;;;5.88;;
65737;SDS011;52478;51.844;6.582;2022-10-31T17:23:08;11.50;;;6.13;;
65737;SDS011;52478;51.844;6.582;2022-10-31T17:25:36;14.00;;;5.88;;
65737;SDS011;52478;51.844;6.582;2022-10-31T17:28:04;11.27;;;6.07;;
65737;SDS011;52478;51.844;6.582;2022-10-31T17:30:31;16.48;;;6.85;;
65737;SDS011;52478;51.844;6.582;2022-10-31T17:32:58;13.10;;;6.68;;
65737;SDS011;52478;51.844;6.582;2022-10-31T17:35:25;11.15;;;5.82;;
65737;SDS011;52478;51.844;6.582;2022-10-31T17:37:51;14.52;;;6.28;;
65737;SDS011;52478;51.844;6.582;2022-10-31T17:40:19;13.02;;;6.65;;
65737;SDS011;52478;51.844;6.582;2022-10-31T17:42:49;12.35;;;5.63;;
65737;SDS011;52478;51.844;6.582;2022-10-31T17:45:17;11.27;;;6.40;;
65737;SDS011;52478;51.844;6.582;2022-10-31T17:47:45;12.32;;;6.13;;
65737;SDS011;52478;51.844;6.582;2022-10-31T17:50:12;11.75;;;5.60;;
65737;SDS011;52478;51.844;6.582;2022-10-31T17:52:38;10.77;;;5.28;;
65737;SDS011;52478;51.844;6.582;2022-10-31T17:55:05;10.65;;;5.82;;
65737;SDS011;52478;51.844;6.582;2022-10-31T17:57:32;11.20;;;5.55;;
65737;SDS011;52478;51.844;6.582;2022-10-31T18:00:00;12.63;;;6.10;;
65737;SDS011;52478;51.844;6.582;2022-10-31T18:02:28;10.32;;;5.55;;
65737;SDS011;52478;51.844;6.582;2022-10-31T18:04:54;11.07;;;5.97;;
65737;SDS011;52478;51.844;6.582;2022-10-31T18:07:21;11.98;;;6.32;;
65737;SDS011;52478;51.844;6.582;2022-10-31T18:09:47;11.00;;;5.72;;
65737;SDS011;52478;51.844;6.582;2022-10-31T18:12:14;12.15;;;6.72;;
65737;SDS011;52478;51.844;6.582;2022-10-31T18:14:41;10.70;;;5.82;;
65737;SDS011;52478;51.844;6.582;2022-10-31T18:17:08;11.30;;;5.65;;
65737;SDS011;52478;51.844;6.582;2022-10-31T18:19:36;10.02;;;5.47;;
65737;SDS011;52478;51.844;6.582;2022-10-31T18:22:02;13.05;;;5.65;;
65737;SDS011;52478;51.844;6.582;2022-10-31T18:24:29;9.80;;;5.13;;
65737;SDS011;52478;51.844;6.582;2022-10-31T18:26:55;11.88;;;5.53;;
65737;SDS011;52478;51.844;6.582;2022-10-31T18:29:22;10.73;;;5.90;;
65737;SDS011;52478;51.844;6.582;2022-10-31T18:31:48;11.00;;;5.20;;
65737;SDS011;52478;51.844;6.582;2022-10-31T18:34:17;10.55;;;5.38;;
65737;SDS011;52478;51.844;6.582;2022-10-31T18:36:45;11.40;;;5.38;;
65737;SDS011;52478;51.844;6.582;2022-10-31T18:39:11;11.98;;;5.70;;
65737;SDS011;52478;51.844;6.582;2022-10-31T18:41:38;11.18;;;5.22;;
65737;SDS011;52478;51.844;6.582;2022-10-31T18:44:05;10.98;;;5.35;;
65737;SDS011;52478;51.844;6.582;2022-10-31T18:46:32;11.13;;;4.88;;
65737;SDS011;52478;51.844;6.582;2022-10-31T18:51:26;10.90;;;5.15;;
65737;SDS011;52478;51.844;6.582;2022-10-31T18:53:54;11.00;;;5.63;;
65737;SDS011;52478;51.844;6.582;2022-10-31T18:56:22;10.50;;;5.80;;
65737;SDS011;52478;51.844;6.582;2022-10-31T19:01:16;10.48;;;5.40;;
65737;SDS011;52478;51.844;6.582;2022-10-31T19:03:43;11.13;;;5.60;;
65737;SDS011;52478;51.844;6.582;2022-10-31T19:06:10;9.82;;;5.10;;
65737;SDS011;52478;51.844;6.582;2022-10-31T19:08:37;10.38;;;5.78;;
65737;SDS011;52478;51.844;6.582;2022-10-31T19:11:07;10.15;;;5.28;;
65737;SDS011;52478;51.844;6.582;2022-10-31T19:13:35;10.07;;;5.40;;
65737;SDS011;52478;51.844;6.582;2022-10-31T19:16:03;9.77;;;4.97;;
65737;SDS011;52478;51.844;6.582;2022-10-31T19:18:30;11.88;;;5.90;;
65737;SDS011;52478;51.844;6.582;2022-10-31T19:20:57;10.40;;;5.47;;
65737;SDS011;52478;51.844;6.582;2022-10-31T19:23:23;10.15;;;5.68;;
65737;SDS011;52478;51.844;6.582;2022-10-31T19:25:50;9.23;;;5.70;;
65737;SDS011;52478;51.844;6.582;2022-10-31T19:28:18;10.82;;;5.47;;
65737;SDS011;52478;51.844;6.582;2022-10-31T19:30:50;11.65;;;6.03;;
65737;SDS011;52478;51.844;6.582;2022-10-31T19:33:18;9.15;;;4.68;;
65737;SDS011;52478;51.844;6.582;2022-10-31T19:35:44;9.77;;;4.80;;
65737;SDS011;52478;51.844;6.582;2022-10-31T19:38:11;10.48;;;5.47;;
65737;SDS011;52478;51.844;6.582;2022-10-31T19:40:37;10.55;;;5.20;;
65737;SDS011;52478;51.844;6.582;2022-10-31T19:43:04;9.45;;;5.32;;
65737;SDS011;52478;51.844;6.582;2022-10-31T19:45:32;8.93;;;4.72;;
65737;SDS011;52478;51.844;6.582;2022-10-31T19:47:58;9.23;;;5.50;;
65737;SDS011;52478;51.844;6.582;2022-10-31T19:50:25;9.38;;;5.40;;
65737;SDS011;52478;51.844;6.582;2022-10-31T19:52:53;9.90;;;5.65;;
65737;SDS011;52478;51.844;6.582;2022-10-31T19:55:20;9.25;;;5.00;;
65737;SDS011;52478;51.844;6.582;2022-10-31T19:57:46;8.18;;;4.63;;
65737;SDS011;52478;51.844;6.582;2022-10-31T20:00:13;9.32;;;4.95;;
65737;SDS011;52478;51.844;6.582;2022-10-31T20:05:08;8.18;;;4.50;;
65737;SDS011;52478;51.844;6.582;2022-10-31T20:07:34;9.88;;;4.75;;
65737;SDS011;52478;51.844;6.582;2022-10-31T20:10:01;9.95;;;4.68;;
65737;SDS011;52478;51.844;6.582;2022-10-31T20:12:27;9.38;;;4.50;;
65737;SDS011;52478;51.844;6.582;2022-10-31T20:14:54;10.20;;;5.13;;
65737;SDS011;52478;51.844;6.582;2022-10-31T20:17:20;8.65;;;4.65;;
65737;SDS011;52478;51.844;6.582;2022-10-31T20:19:48;9.02;;;4.88;;
65737;SDS011;52478;51.844;6.582;2022-10-31T20:22:14;8.40;;;4.80;;
65737;SDS011;52478;51.844;6.582;2022-10-31T20:24:41;10.18;;;5.55;;
65737;SDS011;52478;51.844;6.582;2022-10-31T20:27:07;9.07;;;5.10;;
65737;SDS011;52478;51.844;6.582;2022-10-31T20:29:34;8.82;;;5.00;;
65737;SDS011;52478;51.844;6.582;2022-10-31T20:32:00;8.38;;;4.65;;
65737;SDS011;52478;51.844;6.582;2022-10-31T20:34:27;7.93;;;4.72;;
65737;SDS011;52478;51.844;6.582;2022-10-31T20:36:55;10.02;;;4.63;;
65737;SDS011;52478;51.844;6.582;2022-10-31T20:39:22;9.48;;;4.88;;
65737;SDS011;52478;51.844;6.582;2022-10-31T20:41:48;9.68;;;4.80;;
65737;SDS011;52478;51.844;6.582;2022-10-31T20:44:15;8.60;;;5.00;;
65737;SDS011;52478;51.844;6.582;2022-10-31T20:46:42;9.57;;;4.78;;
65737;SDS011;52478;51.844;6.582;2022-10-31T20:49:08;8.90;;;4.65;;
65737;SDS011;52478;51.844;6.582;2022-10-31T20:51:35;8.02;;;4.53;;
65737;SDS011;52478;51.844;6.582;2022-10-31T20:54:02;9.05;;;4.50;;
65737;SDS011;52478;51.844;6.582;2022-10-31T20:56:30;9.80;;;5.43;;
65737;SDS011;52478;51.844;6.582;2022-10-31T20:58:57;9.57;;;5.38;;
65737;SDS011;52478;51.844;6.582;2022-10-31T21:01:24;9.00;;;4.88;;
65737;SDS011;52478;51.844;6.582;2022-10-31T21:03:52;8.52;;;4.60;;
65737;SDS011;52478;51.844;6.582;2022-10-31T21:06:19;9.00;;;4.75;;
65737;SDS011;52478;51.844;6.582;2022-10-31T21:08:47;8.45;;;4.60;;
65737;SDS011;52478;51.844;6.582;2022-10-31T21:11:15;8.82;;;4.35;;
65737;SDS011;52478;51.844;6.582;2022-10-31T21:13:44;8.82;;;4.35;;
65737;SDS011;52478;51.844;6.582;2022-10-31T21:16:13;9.00;;;4.55;;
65737;SDS011;52478;51.844;6.582;2022-10-31T21:18:41;7.85;;;4.68;;
65737;SDS011;52478;51.844;6.582;2022-10-31T21:21:10;9.27;;;4.43;;
65737;SDS011;52478;51.844;6.582;2022-10-31T21:23:38;9.77;;;5.10;;
65737;SDS011;52478;51.844;6.582;2022-10-31T21:26:05;8.18;;;4.28;;
65737;SDS011;52478;51.844;6.582;2022-10-31T21:28:33;8.15;;;4.95;;
65737;SDS011;52478;51.844;6.582;2022-10-31T21:31:03;8.80;;;4.70;;
65737;SDS011;52478;51.844;6.582;2022-10-31T21:33:31;9.35;;;4.72;;
65737;SDS011;52478;51.844;6.582;2022-10-31T21:35:57;8.18;;;4.25;;
65737;SDS011;52478;51.844;6.582;2022-10-31T21:38:24;9.10;;;4.40;;
65737;SDS011;52478;51.844;6.582;2022-10-31T21:40:56;8.40;;;4.80;;
65737;SDS011;52478;51.844;6.582;2022-10-31T21:43:23;7.75;;;4.00;;
65737;SDS011;52478;51.844;6.582;2022-10-31T21:45:51;8.88;;;4.10;;
65737;SDS011;52478;51.844;6.582;2022-10-31T21:48:18;8.18;;;4.20;;
65737;SDS011;52478;51.844;6.582;2022-10-31T21:50:44;7.47;;;4.05;;
65737;SDS011;52478;51.844;6.582;2022-10-31T21:53:11;7.60;;;3.83;;
65737;SDS011;52478;51.844;6.582;2022-10-31T21:56:01;8.27;;;4.65;;
65737;SDS011;52478;51.844;6.582;2022-10-31T21:58:28;8.95;;;4.60;;
65737;SDS011;52478;51.844;6.582;2022-10-31T22:01:00;7.85;;;4.05;;
65737;SDS011;52478;51.844;6.582;2022-10-31T22:03:27;7.78;;;4.40;;
65737;SDS011;52478;51.844;6.582;2022-10-31T22:05:53;7.88;;;4.40;;
65737;SDS011;52478;51.844;6.582;2022-10-31T22:08:20;7.63;;;4.00;;
65737;SDS011;52478;51.844;6.582;2022-10-31T22:10:46;7.80;;;3.67;;
65737;SDS011;52478;51.844;6.582;2022-10-31T22:13:13;8.30;;;4.15;;
65737;SDS011;52478;51.844;6.582;2022-10-31T22:15:39;7.60;;;4.15;;
65737;SDS011;52478;51.844;6.582;2022-10-31T22:18:07;8.40;;;4.65;;
65737;SDS011;52478;51.844;6.582;2022-10-31T22:20:34;8.52;;;3.85;;
65737;SDS011;52478;51.844;6.582;2022-10-31T22:23:01;8.40;;;4.15;;
65737;SDS011;52478;51.844;6.582;2022-10-31T22:25:27;8.00;;;4.45;;
65737;SDS011;52478;51.844;6.582;2022-10-31T22:27:54;8.90;;;4.40;;
65737;SDS011;52478;51.844;6.582;2022-10-31T22:30:20;7.03;;;3.88;;
65737;SDS011;52478;51.844;6.582;2022-10-31T22:32:47;7.70;;;4.63;;
65737;SDS011;52478;51.844;6.582;2022-10-31T22:35:15;7.50;;;3.83;;
65737;SDS011;52478;51.844;6.582;2022-10-31T22:37:41;8.02;;;4.28;;
65737;SDS011;52478;51.844;6.582;2022-10-31T22:40:08;8.13;;;4.35;;
65737;SDS011;52478;51.844;6.582;2022-10-31T22:42:35;8.40;;;4.45;;
65737;SDS011;52478;51.844;6.582;2022-10-31T22:45:02;7.93;;;4.20;;
65737;SDS011;52478;51.844;6.582;2022-10-31T22:47:29;7.88;;;3.88;;
65737;SDS011;52478;51.844;6.582;2022-10-31T22:49:55;9.18;;;4.75;;
65737;SDS011;52478;51.844;6.582;2022-10-31T22:52:23;8.00;;;4.03;;
65737;SDS011;52478;51.844;6.582;2022-10-31T22:54:50;7.32;;;3.97;;
65737;SDS011;52478;51.844;6.582;2022-10-31T22:57:16;8.15;;;4.28;;
65737;SDS011;52478;51.844;6.582;2022-10-31T22:59:43;8.60;;;4.53;;
65737;SDS011;52478;51.844;6.582;2022-10-31T23:02:10;8.73;;;4.03;;
65737;SDS011;52478;51.844;6.582;2022-10-31T23:04:36;8.10;;;4.50;;
65737;SDS011;52478;51.844;6.582;2022-10-31T23:07:03;8.15;;;4.07;;
65737;SDS011;52478;51.844;6.582;2022-10-31T23:09:31;6.80;;;3.72;;
65737;SDS011;52478;51.844;6.582;2022-10-31T23:11:58;7.85;;;3.47;;
65737;SDS011;52478;51.844;6.582;2022-10-31T23:14:44;7.72;;;3.80;;
65737;SDS011;52478;51.844;6.582;2022-10-31T23:17:10;7.90;;;4.57;;
65737;SDS011;52478;51.844;6.582;2022-10-31T23:19:41;7.95;;;3.88;;
65737;SDS011;52478;51.844;6.582;2022-10-31T23:22:08;7.57;;;4.00;;
65737;SDS011;52478;51.844;6.582;2022-10-31T23:24:36;7.88;;;4.07;;
65737;SDS011;52478;51.844;6.582;2022-10-31T23:27:05;8.93;;;4.20;;
65737;SDS011;52478;51.844;6.582;2022-10-31T23:29:36;7.60;;;4.10;;
65737;SDS011;52478;51.844;6.582;2022-10-31T23:32:09;8.18;;;4.22;;
65737;SDS011;52478;51.844;6.582;2022-10-31T23:34:38;8.27;;;4.03;;
65737;SDS011;52478;51.844;6.582;2022-10-31T23:37:05;7.63;;;4.35;;
65737;SDS011;52478;51.844;6.582;2022-10-31T23:39:32;7.55;;;3.78;;
65737;SDS011;52478;51.844;6.582;2022-10-31T23:42:00;6.93;;;3.72;;
65737;SDS011;52478;51.844;6.582;2022-10-31T23:44:26;8.95;;;4.32;;
65737;SDS011;52478;51.844;6.582;2022-10-31T23:46:53;7.55;;;3.53;;
65737;SDS011;52478;51.844;6.582;2022-10-31T23:49:20;7.35;;;4.10;;
65737;SDS011;52478;51.844;6.582;2022-10-31T23:51:46;7.85;;;4.07;;
65737;SDS011;52478;51.844;6.582;2022-10-31T23:54:13;8.63;;;3.72;;
65737;SDS011;52478;51.844;6.582;2022-10-31T23:56:39;7.40;;;3.80;;
65737;SDS011;52478;51.844;6.582;2022-10-31T23:59:07;8.05;;;4.20;;
